createdAt,value
2022-10-25T00:00:47.798Z,86.22
2022-10-25T00:01:48.101Z,86.02
2022-10-25T00:02:47.833Z,86.33
2022-10-25T00:03:47.773Z,86.02
2022-10-25T00:04:47.752Z,86.13
2022-10-25T00:05:47.765Z,85.93
2022-10-25T00:06:47.730Z,86.02
2022-10-25T00:07:47.971Z,86.02
2022-10-25T00:08:47.722Z,85.93
2022-10-25T00:09:47.700Z,85.93
2022-10-25T00:10:47.690Z,86.63
2022-10-25T00:11:47.679Z,86.43
2022-10-25T00:12:47.667Z,86.53
2022-10-25T00:13:47.669Z,86.63
2022-10-25T00:14:47.644Z,86.22
2022-10-25T00:15:47.637Z,86.53
2022-10-25T00:16:47.623Z,86.43
2022-10-25T00:17:47.941Z,86.22
2022-10-25T00:18:47.614Z,86.53
2022-10-25T00:19:47.593Z,86.13
2022-10-25T00:20:47.641Z,86.22
2022-10-25T00:21:47.588Z,86.33
2022-10-25T00:22:47.987Z,86.13
2022-10-25T00:23:47.552Z,85.93
2022-10-25T00:24:47.536Z,85.93
2022-10-25T00:25:47.527Z,85.93
2022-10-25T00:26:47.513Z,86.13
2022-10-25T00:27:47.519Z,86.22
2022-10-25T00:28:47.496Z,86.02
2022-10-25T00:29:47.484Z,86.02
2022-10-25T00:30:47.474Z,86.33
2022-10-25T00:31:47.463Z,86.13
2022-10-25T00:32:47.739Z,85.82
2022-10-25T00:33:47.440Z,86.02
2022-10-25T00:34:47.428Z,86.33
2022-10-25T00:35:47.420Z,86.22
2022-10-25T00:36:47.406Z,86.13
2022-10-25T00:37:47.432Z,85.93
2022-10-25T00:38:47.385Z,85.62
2022-10-25T00:39:47.382Z,86.16
2022-10-25T00:40:54.957Z,86.43
2022-10-25T00:41:47.354Z,86.33
2022-10-25T00:42:47.701Z,86.47
2022-10-25T00:43:47.333Z,86.22
2022-10-25T00:44:47.319Z,86.57
2022-10-25T00:45:47.344Z,86.37
2022-10-25T00:46:47.297Z,86.57
2022-10-25T00:47:47.596Z,86.43
2022-10-25T00:48:47.280Z,86.63
2022-10-25T00:49:47.267Z,86.47
2022-10-25T00:50:47.253Z,86.16
2022-10-25T00:51:47.245Z,86.88
2022-10-25T00:52:47.270Z,86.83
2022-10-25T00:53:47.240Z,86.68
2022-10-25T00:54:47.211Z,87.04
2022-10-25T00:55:47.200Z,86.27
2022-10-25T00:56:47.188Z,86.88
2022-10-25T00:57:47.491Z,86.37
2022-10-25T00:58:47.167Z,87.59
2022-10-25T00:59:47.158Z,86.98
2022-10-25T01:00:47.145Z,87.38
2022-10-25T01:01:47.228Z,87.38
2022-10-25T01:02:47.255Z,87.38
2022-10-25T01:03:47.113Z,87.28
2022-10-25T01:04:47.102Z,87.28
2022-10-25T01:05:47.093Z,87.48
2022-10-25T01:06:47.082Z,87.59
2022-10-25T01:07:47.367Z,87.69
2022-10-25T01:08:47.060Z,87.79
2022-10-25T01:09:47.069Z,87.79
2022-10-25T01:10:47.038Z,86.94
2022-10-25T01:11:47.027Z,86.68
2022-10-25T01:12:49.883Z,86.88
2022-10-25T01:13:48.009Z,86.13
2022-10-25T01:14:46.994Z,86.27
2022-10-25T01:15:46.986Z,86.73
2022-10-25T01:16:46.982Z,86.77
2022-10-25T01:17:46.965Z,86.68
2022-10-25T01:18:46.952Z,86.16
2022-10-25T01:19:46.947Z,86.47
2022-10-25T01:20:46.930Z,86.88
2022-10-25T01:21:46.935Z,86.47
2022-10-25T01:22:47.152Z,86.88
2022-10-25T01:23:46.896Z,86.53
2022-10-25T01:24:46.889Z,86.77
2022-10-25T01:25:46.949Z,86.88
2022-10-25T01:26:46.877Z,86.16
2022-10-25T01:27:46.890Z,87.18
2022-10-25T01:28:46.842Z,87.69
2022-10-25T01:29:46.832Z,87.79
2022-10-25T01:30:46.880Z,87.69
2022-10-25T01:31:46.823Z,86.57
2022-10-25T01:32:47.103Z,86.98
2022-10-25T01:33:46.786Z,86.94
2022-10-25T01:34:46.777Z,86.33
2022-10-25T01:35:46.772Z,86.83
2022-10-25T01:36:46.766Z,86.94
2022-10-25T01:37:47.022Z,86.83
2022-10-25T01:38:46.735Z,86.22
2022-10-25T01:39:46.722Z,86.83
2022-10-25T01:40:46.757Z,86.94
2022-10-25T01:41:46.737Z,86.43
2022-10-25T01:42:46.691Z,86.63
2022-10-25T01:43:46.678Z,86.49
2022-10-25T01:44:46.670Z,86.39
2022-10-25T01:45:46.770Z,86.39
2022-10-25T01:46:46.659Z,85.78
2022-10-25T01:47:46.970Z,86.02
2022-10-25T01:48:46.627Z,86.19
2022-10-25T01:49:46.625Z,86.22
2022-10-25T01:50:46.714Z,86.08
2022-10-25T01:51:46.603Z,85.93
2022-10-25T01:52:46.626Z,86.19
2022-10-25T01:53:46.571Z,85.99
2022-10-25T01:54:46.563Z,85.88
2022-10-25T01:55:46.552Z,86.02
2022-10-25T01:56:46.551Z,85.48
2022-10-25T01:57:46.753Z,86.19
2022-10-25T01:58:46.520Z,86.19
2022-10-25T01:59:46.506Z,86.19
2022-10-25T02:00:46.529Z,86.19
2022-10-25T02:01:46.500Z,86.02
2022-10-25T02:02:46.765Z,86.19
2022-10-25T02:03:46.471Z,85.17
2022-10-25T02:04:46.453Z,86.39
2022-10-25T02:05:46.444Z,86.39
2022-10-25T02:06:46.444Z,85.58
2022-10-25T02:07:46.422Z,85.99
2022-10-25T02:08:46.413Z,85.48
2022-10-25T02:09:46.399Z,85.38
2022-10-25T02:10:46.388Z,85.78
2022-10-25T02:11:46.388Z,85.58
2022-10-25T02:12:46.696Z,86.49
2022-10-25T02:13:46.372Z,85.58
2022-10-25T02:14:46.352Z,85.68
2022-10-25T02:15:46.422Z,85.58
2022-10-25T02:16:46.340Z,85.99
2022-10-25T02:17:46.326Z,85.48
2022-10-25T02:18:46.299Z,85.58
2022-10-25T02:19:46.293Z,85.99
2022-10-25T02:20:46.951Z,85.88
2022-10-25T02:21:46.279Z,85.99
2022-10-25T02:22:46.591Z,86.19
2022-10-25T02:23:46.250Z,85.88
2022-10-25T02:24:46.237Z,85.68
2022-10-25T02:25:46.225Z,85.58
2022-10-25T02:26:46.295Z,85.88
2022-10-25T02:27:46.569Z,85.58
2022-10-25T02:28:46.218Z,85.17
2022-10-25T02:29:46.206Z,84.97
2022-10-25T02:30:46.172Z,85.58
2022-10-25T02:31:46.171Z,85.07
2022-10-25T02:32:46.151Z,85.33
2022-10-25T02:33:46.140Z,84.97
2022-10-25T02:34:46.128Z,85.03
2022-10-25T02:35:46.116Z,84.47
2022-10-25T02:36:46.117Z,85.27
2022-10-25T02:37:46.377Z,84.77
2022-10-25T02:38:46.088Z,84.67
2022-10-25T02:39:46.076Z,84.63
2022-10-25T02:40:46.070Z,85.07
2022-10-25T02:41:46.063Z,84.63
2022-10-25T02:42:46.042Z,84.56
2022-10-25T02:43:46.037Z,84.47
2022-10-25T02:44:46.022Z,84.53
2022-10-25T02:45:46.076Z,84.42
2022-10-25T02:46:46.011Z,84.73
2022-10-25T02:47:46.349Z,84.67
2022-10-25T02:48:45.978Z,84.63
2022-10-25T02:49:45.966Z,84.97
2022-10-25T02:50:45.956Z,84.87
2022-10-25T02:51:46.015Z,84.87
2022-10-25T02:52:46.452Z,85.07
2022-10-25T02:53:45.937Z,85.07
2022-10-25T02:54:45.912Z,84.33
2022-10-25T02:55:45.904Z,84.77
2022-10-25T02:56:45.903Z,84.16
2022-10-25T02:57:45.882Z,84.16
2022-10-25T02:58:45.869Z,84.53
2022-10-25T02:59:45.859Z,84.67
2022-10-25T03:00:45.989Z,84.47
2022-10-25T03:01:45.923Z,84.27
2022-10-25T03:02:46.186Z,84.27
2022-10-25T03:03:45.812Z,84.33
2022-10-25T03:04:45.805Z,84.33
2022-10-25T03:05:45.791Z,83.92
2022-10-25T03:06:45.795Z,83.92
2022-10-25T03:07:45.769Z,83.82
2022-10-25T03:08:45.765Z,83.92
2022-10-25T03:09:45.750Z,83.72
2022-10-25T03:10:45.739Z,83.51
2022-10-25T03:11:45.740Z,83.65
2022-10-25T03:12:46.029Z,83.82
2022-10-25T03:13:45.706Z,83.76
2022-10-25T03:14:45.698Z,83.61
2022-10-25T03:15:45.692Z,83.61
2022-10-25T03:16:45.686Z,83.25
2022-10-25T03:17:46.065Z,83.35
2022-10-25T03:18:45.662Z,83.21
2022-10-25T03:19:45.641Z,83.25
2022-10-25T03:20:45.635Z,83.21
2022-10-25T03:21:45.629Z,83.41
2022-10-25T03:22:45.609Z,83.41
2022-10-25T03:23:45.615Z,82.95
2022-10-25T03:24:45.610Z,83.65
2022-10-25T03:25:45.599Z,83.55
2022-10-25T03:26:45.579Z,83.45
2022-10-25T03:27:45.914Z,83.01
2022-10-25T03:28:45.547Z,83.01
2022-10-25T03:29:45.534Z,83.04
2022-10-25T03:30:45.546Z,83.31
2022-10-25T03:31:45.526Z,83.45
2022-10-25T03:32:45.505Z,83.01
2022-10-25T03:33:45.514Z,83.35
2022-10-25T03:34:45.482Z,83.25
2022-10-25T03:35:45.511Z,83.45
2022-10-25T03:36:45.492Z,83.65
2022-10-25T03:37:45.715Z,83.76
2022-10-25T03:38:45.435Z,84.36
2022-10-25T03:39:45.426Z,84.42
2022-10-25T03:40:45.432Z,84.36
2022-10-25T03:41:45.403Z,84.87
2022-10-25T03:42:45.417Z,84.97
2022-10-25T03:43:45.382Z,85.07
2022-10-25T03:44:45.373Z,85.13
2022-10-25T03:45:45.374Z,84.87
2022-10-25T03:46:45.353Z,84.87
2022-10-25T03:47:45.633Z,84.56
2022-10-25T03:48:45.343Z,84.67
2022-10-25T03:49:45.338Z,85.27
2022-10-25T03:50:45.323Z,84.93
2022-10-25T03:51:45.300Z,85.07
2022-10-25T03:52:45.287Z,84.87
2022-10-25T03:53:45.274Z,84.97
2022-10-25T03:54:45.292Z,85.13
2022-10-25T03:55:45.350Z,84.97
2022-10-25T03:56:45.243Z,85.07
2022-10-25T03:57:45.582Z,85.07
2022-10-25T03:58:45.222Z,84.42
2022-10-25T03:59:45.238Z,84.67
2022-10-25T04:00:45.262Z,84.56
2022-10-25T04:01:45.305Z,84.36
2022-10-25T04:02:45.220Z,84.67
2022-10-25T04:03:45.174Z,84.77
2022-10-25T04:04:45.158Z,84.77
2022-10-25T04:05:45.162Z,84.97
2022-10-25T04:06:45.153Z,85.07
2022-10-25T04:07:45.515Z,84.77
2022-10-25T04:08:45.115Z,84.67
2022-10-25T04:09:45.102Z,84.67
2022-10-25T04:10:45.093Z,84.67
2022-10-25T04:11:45.092Z,84.87
2022-10-25T04:12:45.095Z,84.36
2022-10-25T04:13:45.057Z,84.47
2022-10-25T04:14:45.049Z,84.56
2022-10-25T04:15:45.041Z,84.77
2022-10-25T04:16:45.049Z,84.77
2022-10-25T04:17:45.330Z,84.87
2022-10-25T04:18:45.006Z,84.77
2022-10-25T04:19:44.993Z,84.67
2022-10-25T04:20:45.069Z,84.77
2022-10-25T04:21:45.004Z,84.77
2022-10-25T04:22:44.982Z,84.97
2022-10-25T04:23:44.949Z,85.17
2022-10-25T04:24:44.949Z,84.16
2022-10-25T04:25:44.930Z,84.16
2022-10-25T04:26:44.933Z,84.56
2022-10-25T04:27:45.224Z,84.36
2022-10-25T04:28:44.897Z,84.16
2022-10-25T04:29:44.886Z,84.12
2022-10-25T04:30:44.878Z,84.56
2022-10-25T04:31:44.873Z,84.22
2022-10-25T04:32:45.243Z,84.36
2022-10-25T04:33:48.067Z,84.42
2022-10-25T04:34:44.834Z,84.42
2022-10-25T04:35:44.857Z,84.27
2022-10-25T04:36:44.820Z,84.42
2022-10-25T04:37:44.817Z,84.16
2022-10-25T04:38:44.795Z,84.63
2022-10-25T04:39:44.778Z,84.47
2022-10-25T04:40:44.771Z,84.67
2022-10-25T04:41:44.768Z,84.47
2022-10-25T04:42:45.155Z,84.53
2022-10-25T04:43:44.736Z,84.16
2022-10-25T04:44:44.726Z,84.27
2022-10-25T04:45:44.715Z,84.22
2022-10-25T04:46:47.785Z,84.33
2022-10-25T04:47:44.692Z,84.33
2022-10-25T04:48:44.682Z,84.36
2022-10-25T04:49:44.669Z,84.12
2022-10-25T04:50:44.660Z,83.86
2022-10-25T04:51:44.732Z,83.92
2022-10-25T04:52:44.905Z,84.12
2022-10-25T04:53:44.648Z,84.27
2022-10-25T04:54:44.616Z,83.96
2022-10-25T04:55:44.651Z,84.33
2022-10-25T04:56:44.607Z,84.16
2022-10-25T04:57:44.587Z,83.96
2022-10-25T04:58:44.573Z,83.86
2022-10-25T04:59:44.576Z,84.16
2022-10-25T05:00:44.552Z,83.86
2022-10-25T05:01:44.675Z,83.96
2022-10-25T05:02:44.825Z,83.96
2022-10-25T05:03:44.518Z,84.16
2022-10-25T05:04:44.508Z,84.47
2022-10-25T05:05:44.565Z,84.36
2022-10-25T05:06:44.501Z,84.36
2022-10-25T05:07:44.476Z,84.36
2022-10-25T05:08:44.465Z,84.67
2022-10-25T05:09:47.243Z,84.16
2022-10-25T05:10:44.442Z,84.47
2022-10-25T05:11:44.449Z,84.06
2022-10-25T05:12:44.610Z,84.16
2022-10-25T05:13:44.417Z,85.07
2022-10-25T05:14:44.401Z,85.07
2022-10-25T05:15:44.405Z,84.77
2022-10-25T05:16:44.383Z,84.91
2022-10-25T05:17:44.374Z,84.67
2022-10-25T05:18:44.354Z,84.67
2022-10-25T05:19:44.346Z,84.36
2022-10-25T05:20:44.348Z,84.67
2022-10-25T05:21:44.326Z,84.61
2022-10-25T05:22:44.476Z,84.67
2022-10-25T05:23:44.304Z,85.21
2022-10-25T05:24:44.309Z,85.21
2022-10-25T05:25:44.313Z,84.30
2022-10-25T05:26:44.269Z,84.81
2022-10-25T05:27:44.261Z,84.50
2022-10-25T05:28:44.260Z,84.50
2022-10-25T05:29:44.240Z,84.41
2022-10-25T05:30:44.238Z,84.36
2022-10-25T05:31:44.218Z,84.41
2022-10-25T05:32:44.340Z,83.80
2022-10-25T05:33:44.215Z,83.39
2022-10-25T05:34:44.183Z,82.98
2022-10-25T05:35:44.196Z,83.59
2022-10-25T05:36:44.163Z,83.69
2022-10-25T05:37:44.154Z,83.29
2022-10-25T05:38:44.165Z,83.69
2022-10-25T05:39:44.129Z,84.00
2022-10-25T05:40:44.118Z,83.90
2022-10-25T05:41:44.138Z,84.20
2022-10-25T05:42:44.344Z,84.20
2022-10-25T05:43:44.087Z,84.30
2022-10-25T05:44:44.077Z,83.90
2022-10-25T05:45:44.068Z,84.00
2022-10-25T05:46:44.063Z,84.10
2022-10-25T05:47:44.044Z,84.30
2022-10-25T05:48:48.510Z,84.00
2022-10-25T05:49:44.030Z,84.00
2022-10-25T05:50:44.022Z,84.00
2022-10-25T05:51:44.012Z,83.90
2022-10-25T05:52:44.156Z,83.80
2022-10-25T05:53:43.983Z,83.69
2022-10-25T05:54:43.968Z,83.69
2022-10-25T05:55:43.963Z,83.80
2022-10-25T05:56:43.954Z,83.90
2022-10-25T05:57:44.001Z,83.49
2022-10-25T05:58:43.924Z,83.49
2022-10-25T05:59:43.915Z,83.45
2022-10-25T06:00:43.904Z,83.39
2022-10-25T06:01:44.198Z,83.25
2022-10-25T06:02:43.938Z,83.39
2022-10-25T06:03:43.879Z,83.69
2022-10-25T06:04:43.860Z,83.49
2022-10-25T06:05:43.855Z,83.65
2022-10-25T06:06:43.850Z,83.15
2022-10-25T06:07:43.828Z,83.35
2022-10-25T06:08:43.817Z,83.25
2022-10-25T06:09:43.857Z,83.15
2022-10-25T06:10:43.864Z,82.95
2022-10-25T06:11:43.797Z,83.15
2022-10-25T06:12:43.822Z,83.25
2022-10-25T06:13:43.813Z,83.25
2022-10-25T06:14:43.751Z,83.35
2022-10-25T06:15:43.742Z,83.15
2022-10-25T06:16:43.755Z,83.04
2022-10-25T06:17:43.723Z,83.25
2022-10-25T06:18:43.707Z,83.04
2022-10-25T06:19:43.703Z,83.25
2022-10-25T06:20:43.689Z,83.04
2022-10-25T06:21:43.687Z,83.25
2022-10-25T06:22:43.814Z,83.35
2022-10-25T06:23:43.659Z,83.15
2022-10-25T06:24:43.666Z,83.25
2022-10-25T06:25:43.634Z,83.25
2022-10-25T06:26:43.633Z,83.31
2022-10-25T06:27:43.613Z,83.15
2022-10-25T06:28:43.602Z,83.45
2022-10-25T06:29:43.608Z,83.15
2022-10-25T06:30:43.579Z,82.54
2022-10-25T06:31:43.585Z,82.54
2022-10-25T06:32:43.611Z,82.75
2022-10-25T06:33:43.547Z,82.95
2022-10-25T06:34:43.535Z,82.64
2022-10-25T06:35:43.548Z,83.15
2022-10-25T06:36:43.534Z,82.50
2022-10-25T06:37:43.504Z,82.40
2022-10-25T06:38:43.504Z,81.69
2022-10-25T06:39:43.484Z,81.90
2022-10-25T06:40:51.118Z,81.79
2022-10-25T06:41:43.475Z,82.10
2022-10-25T06:42:43.626Z,82.20
2022-10-25T06:43:43.450Z,82.20
2022-10-25T06:44:43.429Z,82.20
2022-10-25T06:45:43.439Z,82.20
2022-10-25T06:47:15.516Z,82.20
2022-10-25T06:47:44.399Z,82.20
2022-10-25T06:48:43.385Z,81.90
2022-10-25T06:49:43.374Z,81.90
2022-10-25T06:50:43.500Z,81.69
2022-10-25T06:51:43.382Z,81.85
2022-10-25T06:52:43.362Z,81.39
2022-10-25T06:53:43.331Z,81.49
2022-10-25T06:54:43.323Z,81.25
2022-10-25T06:55:43.310Z,81.90
2022-10-25T06:56:43.309Z,81.99
2022-10-25T06:57:43.288Z,81.79
2022-10-25T06:58:43.276Z,81.99
2022-10-25T06:59:43.268Z,81.69
2022-10-25T07:00:45.987Z,81.85
2022-10-25T07:01:43.396Z,81.96
2022-10-25T07:02:43.232Z,81.55
2022-10-25T07:03:43.222Z,81.45
2022-10-25T07:04:43.210Z,81.35
2022-10-25T07:05:43.199Z,81.35
2022-10-25T07:06:43.200Z,81.05
2022-10-25T07:07:43.183Z,81.45
2022-10-25T07:08:43.180Z,81.25
2022-10-25T07:09:43.158Z,80.74
2022-10-25T07:10:43.145Z,80.84
2022-10-25T07:11:43.173Z,80.94
2022-10-25T07:12:43.121Z,81.15
2022-10-25T07:13:43.117Z,80.80
2022-10-25T07:14:43.107Z,81.21
2022-10-25T07:15:43.090Z,80.71
2022-10-25T07:16:43.085Z,80.71
2022-10-25T07:17:43.086Z,80.71
2022-10-25T07:18:43.058Z,81.01
2022-10-25T07:19:43.047Z,80.91
2022-10-25T07:20:43.036Z,80.50
2022-10-25T07:21:43.040Z,80.36
2022-10-25T07:22:43.014Z,80.50
2022-10-25T07:23:43.016Z,80.30
2022-10-25T07:24:42.991Z,80.46
2022-10-25T07:25:42.981Z,80.16
2022-10-25T07:26:42.979Z,79.72
2022-10-25T07:27:42.958Z,79.32
2022-10-25T07:28:42.946Z,79.32
2022-10-25T07:29:42.953Z,79.28
2022-10-25T07:30:42.924Z,78.03
2022-10-25T07:31:42.926Z,77.89
2022-10-25T07:32:42.947Z,76.78
2022-10-25T07:33:42.913Z,76.24
2022-10-25T07:34:42.881Z,75.84
2022-10-25T07:35:52.471Z,76.14
2022-10-25T07:36:43.873Z,76.34
2022-10-25T07:37:42.851Z,76.07
2022-10-25T07:38:42.853Z,77.08
2022-10-25T07:39:42.828Z,76.34
2022-10-25T07:40:42.816Z,76.58
2022-10-25T07:41:42.819Z,77.08
2022-10-25T07:42:42.799Z,77.39
2022-10-25T07:43:42.831Z,77.69
2022-10-25T07:44:42.806Z,77.73
2022-10-25T07:45:42.766Z,77.53
2022-10-25T07:46:42.766Z,77.83
2022-10-25T07:47:42.744Z,77.39
2022-10-25T07:48:42.730Z,77.39
2022-10-25T07:49:42.735Z,77.15
2022-10-25T07:50:42.724Z,76.84
2022-10-25T07:51:42.711Z,76.04
2022-10-25T07:52:42.708Z,75.36
2022-10-25T07:53:42.683Z,74.52
2022-10-25T07:55:42.657Z,73.14
2022-10-25T07:56:42.661Z,72.74
2022-10-25T07:57:42.636Z,72.97
2022-10-25T07:58:42.624Z,73.28
2022-10-25T07:59:42.612Z,73.38
2022-10-25T08:00:42.603Z,73.32
2022-10-25T08:01:42.668Z,73.82
2022-10-25T08:02:42.599Z,74.26
2022-10-25T08:03:42.599Z,74.86
2022-10-25T08:04:42.561Z,74.55
2022-10-25T08:05:42.567Z,75.16
2022-10-25T08:06:42.552Z,75.60
2022-10-25T08:07:42.530Z,75.90
2022-10-25T08:08:42.522Z,75.36
2022-10-25T08:09:42.508Z,75.40
2022-10-25T08:10:42.498Z,75.90
2022-10-25T08:11:42.499Z,76.04
2022-10-25T08:12:42.531Z,75.63
2022-10-25T08:13:42.466Z,76.04
2022-10-25T08:14:43.325Z,75.94
2022-10-25T08:15:42.443Z,76.54
2022-10-25T08:16:42.448Z,76.88
2022-10-25T08:17:42.461Z,77.55
2022-10-25T08:18:42.413Z,77.39
2022-10-25T08:19:42.404Z,77.89
2022-10-25T08:21:01.145Z,77.89
2022-10-25T08:21:43.416Z,77.69
2022-10-25T08:22:42.375Z,77.89
2022-10-25T08:23:42.365Z,77.99
2022-10-25T08:24:42.349Z,77.59
2022-10-25T08:25:42.369Z,77.99
2022-10-25T08:26:42.342Z,77.79
2022-10-25T08:27:42.318Z,77.83
2022-10-25T08:28:42.305Z,77.83
2022-10-25T08:29:42.294Z,77.93
2022-10-25T08:30:42.284Z,78.03
2022-10-25T08:31:42.315Z,78.53
2022-10-25T08:32:42.299Z,78.67
2022-10-25T08:33:42.272Z,78.97
2022-10-25T08:34:42.240Z,78.77
2022-10-25T08:35:42.226Z,78.77
2022-10-25T08:36:42.230Z,79.28
2022-10-25T08:37:42.222Z,79.17
2022-10-25T08:38:42.196Z,79.17
2022-10-25T08:39:42.184Z,79.79
2022-10-25T08:40:42.255Z,79.68
2022-10-25T08:41:42.171Z,80.22
2022-10-25T08:42:42.153Z,79.68
2022-10-25T08:43:42.139Z,79.58
2022-10-25T08:44:42.132Z,79.79
2022-10-25T08:45:43.807Z,79.88
2022-10-25T08:46:42.117Z,80.19
2022-10-25T08:47:42.096Z,80.29
2022-10-25T08:48:42.087Z,80.22
2022-10-25T08:49:42.074Z,80.63
2022-10-25T08:50:42.087Z,80.73
2022-10-25T08:51:42.061Z,80.43
2022-10-25T08:52:42.045Z,80.39
2022-10-25T08:53:42.114Z,80.79
2022-10-25T08:54:42.022Z,80.90
2022-10-25T08:55:58.813Z,80.99
2022-10-25T08:56:56.997Z,81.10
2022-10-25T08:57:42.988Z,80.69
2022-10-25T08:58:41.978Z,80.90
2022-10-25T08:59:41.981Z,80.90
2022-10-25T09:00:41.997Z,80.69
2022-10-25T09:01:42.039Z,80.39
2022-10-25T09:02:41.937Z,80.39
2022-10-25T09:03:41.926Z,80.01
2022-10-25T09:04:41.915Z,79.30
2022-10-25T09:05:41.902Z,78.66
2022-10-25T09:06:41.960Z,78.26
2022-10-25T09:07:42.794Z,78.16
2022-10-25T09:08:41.871Z,78.30
2022-10-25T09:09:41.875Z,78.70
2022-10-25T09:10:41.852Z,78.80
2022-10-25T09:11:41.845Z,79.41
2022-10-25T09:12:41.828Z,78.50
2022-10-25T09:13:41.817Z,78.59
2022-10-25T09:14:41.806Z,78.19
2022-10-25T09:15:43.137Z,78.19
2022-10-25T09:16:41.796Z,78.59
2022-10-25T09:17:41.774Z,79.41
2022-10-25T09:18:41.766Z,79.41
2022-10-25T09:19:41.753Z,79.10
2022-10-25T09:20:41.741Z,79.41
2022-10-25T09:21:41.740Z,78.50
2022-10-25T09:22:41.719Z,79.21
2022-10-25T09:23:41.711Z,79.50
2022-10-25T09:24:41.702Z,79.50
2022-10-25T09:25:41.704Z,78.80
2022-10-25T09:26:41.687Z,78.59
2022-10-25T09:27:41.668Z,78.66
2022-10-25T09:28:41.682Z,78.80
2022-10-25T09:29:41.643Z,79.00
2022-10-25T09:30:41.656Z,78.66
2022-10-25T09:31:41.624Z,78.66
2022-10-25T09:32:41.623Z,77.92
2022-10-25T09:33:41.601Z,77.38
2022-10-25T09:34:41.591Z,77.48
2022-10-25T09:35:41.585Z,76.97
2022-10-25T09:36:41.570Z,76.77
2022-10-25T09:37:41.570Z,75.70
2022-10-25T09:38:41.548Z,75.26
2022-10-25T09:39:41.536Z,73.47
2022-10-25T09:40:45.159Z,72.44
2022-10-25T09:41:42.532Z,71.50
2022-10-25T09:42:41.518Z,70.76
2022-10-25T09:43:41.493Z,68.89
2022-10-25T09:44:41.491Z,68.35
2022-10-25T09:45:42.136Z,67.12
2022-10-25T09:46:41.595Z,66.59
2022-10-25T09:47:41.455Z,66.39
2022-10-25T09:48:41.440Z,66.05
2022-10-25T09:49:41.428Z,65.39
2022-10-25T09:50:41.422Z,65.59
2022-10-25T09:51:41.440Z,65.69
2022-10-25T09:52:41.397Z,65.92
2022-10-25T09:53:41.387Z,65.92
2022-10-25T09:54:41.379Z,65.82
2022-10-25T09:55:41.363Z,66.22
2022-10-25T09:56:41.368Z,65.92
2022-10-25T09:57:41.359Z,64.98
2022-10-25T09:58:41.334Z,65.69
2022-10-25T09:59:41.362Z,65.05
2022-10-25T10:00:41.310Z,65.59
2022-10-25T10:01:41.437Z,65.31
2022-10-25T10:02:41.416Z,66.05
2022-10-25T10:03:41.291Z,66.48
2022-10-25T10:04:41.272Z,67.52
2022-10-25T10:05:41.258Z,68.05
2022-10-25T10:06:41.259Z,68.88
2022-10-25T10:07:41.237Z,69.42
2022-10-25T10:08:41.229Z,69.92
2022-10-25T10:09:45.698Z,70.46
2022-10-25T10:10:41.205Z,70.46
2022-10-25T10:11:41.203Z,71.40
2022-10-25T10:12:41.184Z,70.59
2022-10-25T10:13:41.191Z,71.13
2022-10-25T10:14:41.169Z,70.93
2022-10-25T10:15:41.151Z,71.83
2022-10-25T10:16:41.150Z,71.63
2022-10-25T10:17:41.130Z,71.83
2022-10-25T10:18:41.118Z,72.34
2022-10-25T10:19:41.106Z,72.27
2022-10-25T10:20:41.095Z,72.67
2022-10-25T10:21:41.094Z,72.07
2022-10-25T10:22:41.122Z,72.57
2022-10-25T10:23:41.064Z,72.37
2022-10-25T10:24:41.076Z,72.47
2022-10-25T10:25:41.040Z,72.81
2022-10-25T10:26:41.039Z,72.81
2022-10-25T10:27:41.017Z,73.21
2022-10-25T10:28:41.014Z,73.75
2022-10-25T10:29:41.028Z,73.95
2022-10-25T10:30:40.989Z,74.05
2022-10-25T10:31:40.988Z,74.05
2022-10-25T10:33:40.954Z,74.46
2022-10-25T10:34:40.943Z,74.49
2022-10-25T10:35:40.932Z,74.79
2022-10-25T10:36:40.932Z,74.99
2022-10-25T10:37:40.913Z,75.10
2022-10-25T10:38:40.904Z,75.43
2022-10-25T10:39:40.891Z,75.03
2022-10-25T10:40:40.882Z,75.84
2022-10-25T10:41:40.883Z,75.54
2022-10-25T10:42:40.873Z,75.84
2022-10-25T10:43:40.872Z,75.84
2022-10-25T10:44:40.842Z,76.14
2022-10-25T10:45:40.880Z,75.94
2022-10-25T10:46:40.876Z,76.24
2022-10-25T10:47:40.806Z,76.14
2022-10-25T10:48:42.908Z,76.24
2022-10-25T10:49:40.783Z,76.24
2022-10-25T10:50:44.950Z,75.94
2022-10-25T10:51:44.383Z,75.84
2022-10-25T10:52:40.753Z,75.94
2022-10-25T10:53:40.742Z,75.84
2022-10-25T10:54:40.730Z,75.63
2022-10-25T10:55:40.719Z,75.74
2022-10-25T10:56:40.726Z,76.24
2022-10-25T10:57:40.709Z,76.24
2022-10-25T10:58:40.721Z,76.24
2022-10-25T10:59:40.695Z,75.90
2022-10-25T11:00:40.670Z,75.70
2022-10-25T11:01:40.861Z,74.99
2022-10-25T11:02:40.957Z,75.20
2022-10-25T11:03:48.656Z,74.79
2022-10-25T11:04:41.623Z,74.86
2022-10-25T11:05:40.609Z,74.69
2022-10-25T11:06:40.671Z,74.05
2022-10-25T11:07:40.621Z,74.26
2022-10-25T11:08:40.579Z,73.85
2022-10-25T11:09:40.571Z,73.85
2022-10-25T11:10:40.602Z,73.55
2022-10-25T11:11:40.559Z,73.55
2022-10-25T11:12:41.371Z,73.41
2022-10-25T11:13:40.528Z,72.91
2022-10-25T11:14:40.518Z,72.00
2022-10-25T11:15:40.505Z,72.20
2022-10-25T11:16:40.507Z,72.37
2022-10-25T11:17:40.597Z,72.41
2022-10-25T11:18:40.472Z,72.47
2022-10-25T11:19:40.471Z,71.87
2022-10-25T11:20:40.526Z,71.47
2022-10-25T11:21:40.451Z,71.47
2022-10-25T11:22:40.491Z,71.47
2022-10-25T11:23:40.422Z,71.47
2022-10-25T11:24:40.411Z,71.03
2022-10-25T11:25:40.399Z,71.03
2022-10-25T11:26:40.403Z,70.59
2022-10-25T11:27:40.377Z,70.70
2022-10-25T11:28:40.369Z,70.50
2022-10-25T11:29:40.380Z,70.59
2022-10-25T11:30:40.350Z,70.59
2022-10-25T11:31:40.350Z,69.49
2022-10-25T11:32:40.333Z,69.18
2022-10-25T11:33:40.428Z,69.49
2022-10-25T11:34:40.393Z,68.88
2022-10-25T11:35:40.293Z,69.29
2022-10-25T11:36:40.304Z,69.35
2022-10-25T11:37:40.277Z,69.15
2022-10-25T11:38:40.265Z,69.45
2022-10-25T11:39:41.248Z,69.15
2022-10-25T11:40:40.250Z,68.95
2022-10-25T11:41:40.254Z,68.55
2022-10-25T11:42:40.222Z,68.65
2022-10-25T11:43:40.210Z,68.55
2022-10-25T11:44:42.953Z,68.15
2022-10-25T11:45:41.240Z,67.85
2022-10-25T11:46:40.195Z,67.55
2022-10-25T11:47:43.455Z,67.55
2022-10-25T11:48:40.161Z,67.35
2022-10-25T11:49:40.274Z,67.24
2022-10-25T11:50:40.139Z,68.05
2022-10-25T11:51:40.139Z,68.15
2022-10-25T11:52:40.117Z,68.05
2022-10-25T11:53:40.106Z,68.25
2022-10-25T11:54:40.101Z,68.38
2022-10-25T11:55:40.177Z,68.18
2022-10-25T11:56:40.095Z,68.08
2022-10-25T11:57:40.065Z,68.48
2022-10-25T11:58:40.059Z,68.59
2022-10-25T11:59:40.044Z,68.55
2022-10-25T12:00:40.205Z,68.45
2022-10-25T12:01:40.107Z,68.65
2022-10-25T12:02:40.089Z,68.28
2022-10-25T12:03:40.002Z,68.48
2022-10-25T12:04:39.995Z,68.38
2022-10-25T12:05:40.126Z,68.18
2022-10-25T12:06:39.981Z,68.38
2022-10-25T12:07:39.959Z,67.47
2022-10-25T12:08:39.953Z,68.18
2022-10-25T12:09:39.938Z,68.08
2022-10-25T12:10:39.999Z,67.88
2022-10-25T12:11:39.933Z,68.08
2022-10-25T12:12:39.910Z,68.08
2022-10-25T12:13:39.897Z,68.28
2022-10-25T12:14:39.890Z,68.59
2022-10-25T12:15:39.877Z,68.68
2022-10-25T12:16:39.873Z,68.91
2022-10-25T12:17:39.862Z,68.78
2022-10-25T12:18:39.847Z,68.71
2022-10-25T12:19:39.835Z,69.02
2022-10-25T12:20:39.827Z,68.95
2022-10-25T12:21:39.950Z,69.56
2022-10-25T12:22:39.803Z,69.35
2022-10-25T12:23:39.801Z,69.15
2022-10-25T12:24:39.779Z,69.35
2022-10-25T12:25:39.854Z,69.45
2022-10-25T12:26:39.776Z,69.56
2022-10-25T12:27:39.752Z,70.06
2022-10-25T12:28:39.738Z,70.26
2022-10-25T12:29:39.729Z,70.70
2022-10-25T12:30:39.716Z,69.85
2022-10-25T12:31:39.715Z,69.99
2022-10-25T12:32:39.694Z,69.89
2022-10-25T12:33:39.684Z,70.70
2022-10-25T12:34:39.674Z,70.90
2022-10-25T12:35:40.320Z,70.19
2022-10-25T12:36:39.659Z,70.59
2022-10-25T12:37:39.758Z,70.70
2022-10-25T12:38:39.633Z,70.50
2022-10-25T12:39:39.617Z,71.00
2022-10-25T12:40:41.542Z,71.00
2022-10-25T12:41:39.605Z,71.10
2022-10-25T12:42:39.585Z,71.30
2022-10-25T12:43:39.581Z,71.30
2022-10-25T12:44:39.567Z,71.13
2022-10-25T12:45:39.554Z,71.50
2022-10-25T12:46:39.558Z,71.60
2022-10-25T12:47:39.535Z,71.23
2022-10-25T12:48:39.522Z,71.03
2022-10-25T12:49:39.511Z,71.33
2022-10-25T12:50:39.500Z,71.03
2022-10-25T12:51:39.503Z,71.23
2022-10-25T12:52:39.496Z,71.03
2022-10-25T12:53:39.663Z,71.73
2022-10-25T12:54:39.455Z,71.64